CheckWX is a tool to help pilots better visualize weather data.  It is not intended as a substitute for an official pre-flight weather briefing.

17:59:34 UTC

KAXH METAR
Houston-Southwest Airport
Houston, Texas, USA
Current

25 mins ago

KAXH 251735Z AUTO 13011G15KT 10SM 18/09 A3019 RMK AO2 T01810094
Observed
Jan-25 @ 17:35 UTC
Wind
  • 130° at 11 KTS
  • Gusting to 15 KTS
Visibility
10 SM
Temperature
18°C / 64°F
Dewpoint
C / 48°F
Humidity
56%
Altimeter
30.19" Hg
Pressure
1022.32 hPa
Previous

45 mins ago

KAXH 251715Z AUTO 14009G17KT 10SM 17/09 A3019 RMK AO2 T01730089
Observed
Jan-25 @ 17:15 UTC
Wind
  • 140° at 9 KTS
  • Gusting to 17 KTS
Visibility
10 SM
Temperature
17°C / 63°F
Dewpoint
C / 48°F
Humidity
59%
Altimeter
30.19" Hg
Pressure
1022.32 hPa
Previous

1 hour ago

KAXH 251655Z AUTO 12012G16KT 10SM 17/10 A3019 RMK AO2 T01680103
Observed
Jan-25 @ 16:55 UTC
Wind
  • 120° at 12 KTS
  • Gusting to 16 KTS
Visibility
10 SM
Temperature
17°C / 63°F
Dewpoint
10°C / 50°F
Humidity
64%
Altimeter
30.19" Hg
Pressure
1022.32 hPa